Time;durP1;ratioP1;P1;durP2;ratioP2;P2;SDS_P1;SDS_P2;PMS_P1;PMS_P2;Temp;Humidity;BMP_temperature;BMP_pressure;BME280_temperature;BME280_humidity;BME280_pressure;Samples;Min_cycle;Max_cycle;Signal;HPM_P1;HPM_P2
2021/06/14 00:02:11;;;;;;;10.35;4.40;;;;;;;;;;5076586;28;20079;-88
2021/06/14 00:04:38;;;;;;;15.73;4.70;;;;;;;;;;5077080;28;20752;-88
2021/06/14 00:07:06;;;;;;;13.68;4.95;;;;;;;;;;5077479;28;20101;-88
2021/06/14 00:09:33;;;;;;;8.93;3.90;;;;;;;;;;5077431;28;20396;-88
2021/06/14 00:12:01;;;;;;;12.55;5.03;;;;;;;;;;5077375;28;20086;-88
2021/06/14 00:14:28;;;;;;;8.95;3.88;;;;;;;;;;5076956;28;20056;-88
2021/06/14 00:16:55;;;;;;;9.63;4.57;;;;;;;;;;5077201;28;20050;-87
2021/06/14 00:19:23;;;;;;;15.40;5.07;;;;;;;;;;5077202;28;20052;-87
2021/06/14 00:21:50;;;;;;;9.25;4.75;;;;;;;;;;5076971;28;20044;-88
2021/06/14 00:24:17;;;;;;;13.55;4.75;;;;;;;;;;5076063;28;20048;-88
2021/06/14 00:26:49;;;;;;;9.10;4.55;;;;;;;;;;5077347;28;20063;-87
2021/06/14 00:29:16;;;;;;;19.25;4.95;;;;;;;;;;5077148;28;20044;-87
2021/06/14 00:31:43;;;;;;;12.68;4.50;;;;;;;;;;5076532;28;20048;-87
2021/06/14 00:34:10;;;;;;;14.40;4.47;;;;;;;;;;5075896;28;20117;-88
2021/06/14 00:36:37;;;;;;;8.98;4.53;;;;;;;;;;5076913;28;20048;-88
2021/06/14 00:39:05;;;;;;;9.75;4.43;;;;;;;;;;5064655;28;20045;-87
2021/06/14 00:41:32;;;;;;;9.02;4.22;;;;;;;;;;5088370;28;20043;-88
2021/06/14 00:44:00;;;;;;;16.95;5.18;;;;;;;;;;5076824;28;20083;-88
2021/06/14 00:46:27;;;;;;;22.13;6.05;;;;;;;;;;5094444;28;20080;-87
2021/06/14 00:48:54;;;;;;;11.93;5.43;;;;;;;;;;5076650;28;20392;-88
2021/06/14 00:51:21;;;;;;;15.80;4.35;;;;;;;;;;5069009;28;20050;-88
2021/06/14 00:53:55;;;;;;;10.20;4.38;;;;;;;;;;5078568;28;20505;-88
2021/06/14 00:56:23;;;;;;;11.25;4.68;;;;;;;;;;5079020;28;20046;-88
2021/06/14 00:58:51;;;;;;;12.15;4.88;;;;;;;;;;5078697;28;20054;-88
2021/06/14 01:01:19;;;;;;;14.40;5.50;;;;;;;;;;5079055;28;20088;-88
2021/06/14 01:03:46;;;;;;;13.95;4.82;;;;;;;;;;5079208;28;20057;-87
2021/06/14 01:06:15;;;;;;;12.73;4.93;;;;;;;;;;5011791;28;20137;-88
2021/06/14 01:08:50;;;;;;;10.18;5.35;;;;;;;;;;5011879;28;20053;-87
2021/06/14 01:11:51;;;;;;;12.55;4.50;;;;;;;;;;5092700;28;20048;-88
2021/06/14 01:14:21;;;;;;;18.20;5.20;;;;;;;;;;5075857;28;20504;-88
2021/06/14 01:16:55;;;;;;;11.73;5.35;;;;;;;;;;5094540;28;20101;-88
2021/06/14 01:19:43;;;;;;;19.35;5.20;;;;;;;;;;5076862;28;20048;-88
2021/06/14 01:22:43;;;;;;;17.13;5.45;;;;;;;;;;5078492;28;20080;-88
2021/06/14 01:28:16;;;;;;;10.30;5.00;;;;;;;;;;5024750;28;20423;-88
2021/06/14 01:30:43;;;;;;;7.22;4.65;;;;;;;;;;5072773;28;20135;-88
2021/06/14 01:33:13;;;;;;;10.73;5.03;;;;;;;;;;5055704;28;20086;-88
2021/06/14 01:35:46;;;;;;;14.85;5.25;;;;;;;;;;5055428;28;20091;-88
2021/06/14 01:38:13;;;;;;;9.82;4.40;;;;;;;;;;5055834;28;20044;-88
2021/06/14 01:40:41;;;;;;;11.48;4.50;;;;;;;;;;5075177;28;20077;-88
2021/06/14 01:43:10;;;;;;;13.55;5.15;;;;;;;;;;5077605;28;20517;-88
2021/06/14 01:45:47;;;;;;;13.98;5.78;;;;;;;;;;5010512;28;20095;-88
2021/06/14 01:48:15;;;;;;;15.20;5.38;;;;;;;;;;5090030;28;20070;-88
2021/06/14 01:50:43;;;;;;;14.95;5.15;;;;;;;;;;5093605;28;20078;-88
2021/06/14 01:53:10;;;;;;;16.95;5.53;;;;;;;;;;5075528;28;20101;-88
2021/06/14 01:55:38;;;;;;;18.33;6.03;;;;;;;;;;5093356;28;20044;-88
2021/06/14 01:58:05;;;;;;;18.95;5.88;;;;;;;;;;5074436;28;20052;-88
2021/06/14 02:00:33;;;;;;;11.98;5.70;;;;;;;;;;5074998;28;20448;-88
2021/06/14 02:03:01;;;;;;;10.13;5.38;;;;;;;;;;5075326;28;20130;-88
2021/06/14 02:05:29;;;;;;;16.05;5.38;;;;;;;;;;5075145;28;20048;-88
2021/06/14 02:08:23;;;;;;;18.95;5.30;;;;;;;;;;5093645;28;20044;-88
2021/06/14 02:10:51;;;;;;;16.30;5.20;;;;;;;;;;5075667;28;20052;-88
2021/06/14 02:13:19;;;;;;;15.90;5.68;;;;;;;;;;5074452;28;20075;-88
2021/06/14 02:15:47;;;;;;;13.98;6.13;;;;;;;;;;5055250;28;20657;-88
2021/06/14 02:18:16;;;;;;;12.98;5.80;;;;;;;;;;5038322;28;20128;-88
2021/06/14 02:20:44;;;;;;;12.13;5.70;;;;;;;;;;5037861;28;20071;-88
2021/06/14 02:23:12;;;;;;;12.98;5.00;;;;;;;;;;5037335;28;20047;-88
2021/06/14 02:25:41;;;;;;;14.45;5.65;;;;;;;;;;5055004;28;20045;-88
2021/06/14 02:28:24;;;;;;;12.77;5.60;;;;;;;;;;5055551;28;20782;-88
2021/06/14 02:30:59;;;;;;;12.05;5.72;;;;;;;;;;5073405;28;20651;-88
2021/06/14 02:33:34;;;;;;;;;;;;;;;;;;5055951;28;20055;-88
2021/06/14 02:36:01;;;;;;;13.90;5.43;;;;;;;;;;5056083;28;19982;-88
2021/06/14 02:38:29;;;;;;;16.85;5.63;;;;;;;;;;5072823;28;20541;-89
2021/06/14 02:40:57;;;;;;;18.33;6.68;;;;;;;;;;5070129;28;20111;-87
2021/06/14 02:43:24;;;;;;;22.08;6.53;;;;;;;;;;5080167;28;20044;-88
2021/06/14 02:45:52;;;;;;;22.10;7.20;;;;;;;;;;5100089;28;20071;-88
2021/06/14 02:48:19;;;;;;;16.77;6.05;;;;;;;;;;5083598;28;20475;-88
2021/06/14 02:50:47;;;;;;;18.20;6.82;;;;;;;;;;5031174;28;20052;-88
2021/06/14 02:53:14;;;;;;;13.63;6.75;;;;;;;;;;5110223;28;20052;-88
2021/06/14 02:56:02;;;;;;;15.65;6.32;;;;;;;;;;5090102;28;20052;-89
2021/06/14 02:58:37;;;;;;;12.65;5.93;;;;;;;;;;5090285;28;20075;-88
2021/06/14 03:01:05;;;;;;;19.73;6.17;;;;;;;;;;5109499;28;20087;-87
2021/06/14 03:03:33;;;;;;;18.48;7.60;;;;;;;;;;5092973;28;20045;-88
2021/06/14 03:06:00;;;;;;;12.40;6.07;;;;;;;;;;5094294;28;20055;-87
2021/06/14 03:08:28;;;;;;;16.10;6.03;;;;;;;;;;5094104;28;20055;-87
2021/06/14 03:10:56;;;;;;;16.13;6.63;;;;;;;;;;5087144;28;20082;-88
2021/06/14 03:13:23;;;;;;;13.90;5.70;;;;;;;;;;5079889;28;20044;-88
2021/06/14 03:15:50;;;;;;;13.70;6.43;;;;;;;;;;5079590;28;20052;-88
2021/06/14 03:18:19;;;;;;;14.32;5.93;;;;;;;;;;5079548;28;20468;-88
2021/06/14 03:21:18;;;;;;;17.73;6.22;;;;;;;;;;5097319;28;20387;-88
2021/06/14 03:23:45;;;;;;;20.42;6.10;;;;;;;;;;5078321;28;20080;-88
2021/06/14 03:26:13;;;;;;;23.63;6.78;;;;;;;;;;5078612;28;20127;-88
2021/06/14 03:28:41;;;;;;;18.55;6.47;;;;;;;;;;5078086;28;20072;-88
2021/06/14 03:31:09;;;;;;;32.67;7.47;;;;;;;;;;5078543;28;20048;-88
2021/06/14 03:33:36;;;;;;;14.93;6.07;;;;;;;;;;5078455;28;20140;-88
2021/06/14 03:36:04;;;;;;;16.50;7.28;;;;;;;;;;5077667;28;20052;-88
2021/06/14 03:38:31;;;;;;;17.13;6.13;;;;;;;;;;5080098;28;20098;-88
2021/06/14 03:40:59;;;;;;;13.38;6.13;;;;;;;;;;5094652;28;20101;-88
2021/06/14 03:43:27;;;;;;;17.35;6.78;;;;;;;;;;5077705;28;20492;-88
2021/06/14 03:45:54;;;;;;;12.98;6.35;;;;;;;;;;5077009;28;20512;-88
2021/06/14 03:48:21;;;;;;;23.23;7.82;;;;;;;;;;5076891;28;20143;-88
2021/06/14 03:50:56;;;;;;;15.18;6.22;;;;;;;;;;5095249;28;20101;-88
2021/06/14 03:53:36;;;;;;;16.50;7.97;;;;;;;;;;5060413;28;20078;-87
2021/06/14 03:56:08;;;;;;;20.42;6.82;;;;;;;;;;5057598;28;20488;-88
2021/06/14 03:58:36;;;;;;;18.58;7.47;;;;;;;;;;5076675;28;20048;-88
2021/06/14 04:01:03;;;;;;;15.43;6.60;;;;;;;;;;5077415;28;20076;-88
2021/06/14 04:03:31;;;;;;;19.98;7.43;;;;;;;;;;5077612;28;20044;-88
2021/06/14 04:06:00;;;;;;;22.77;8.07;;;;;;;;;;5077603;28;20126;-88
2021/06/14 04:08:27;;;;;;;13.32;5.95;;;;;;;;;;5077356;28;20051;-88
2021/06/14 04:10:55;;;;;;;18.90;6.15;;;;;;;;;;5095186;28;20102;-88
2021/06/14 04:13:22;;;;;;;17.92;7.38;;;;;;;;;;5077222;28;20129;-88
2021/06/14 04:15:49;;;;;;;20.60;7.53;;;;;;;;;;5076671;28;20044;-88
2021/06/14 04:18:16;;;;;;;17.88;7.07;;;;;;;;;;5077458;28;20127;-88
2021/06/14 04:20:44;;;;;;;14.13;7.35;;;;;;;;;;5064120;28;20057;-89
2021/06/14 04:23:11;;;;;;;23.38;7.43;;;;;;;;;;5079946;28;20054;-88
2021/06/14 04:25:52;;;;;;;24.17;7.15;;;;;;;;;;5079853;28;20050;-88
2021/06/14 04:28:19;;;;;;;16.75;6.93;;;;;;;;;;5012427;28;20555;-88
2021/06/14 04:30:46;;;;;;;18.42;6.90;;;;;;;;;;5080170;28;20474;-88
2021/06/14 04:33:15;;;;;;;20.48;6.70;;;;;;;;;;5012489;28;20045;-89
2021/06/14 04:35:42;;;;;;;17.08;6.43;;;;;;;;;;5080473;28;20486;-88
2021/06/14 04:38:09;;;;;;;17.20;7.03;;;;;;;;;;5079573;28;20100;-89
2021/06/14 04:41:12;;;;;;;19.73;7.28;;;;;;;;;;5078479;28;20079;-88
2021/06/14 04:43:39;;;;;;;22.98;7.25;;;;;;;;;;5094291;28;20467;-88
2021/06/14 04:46:06;;;;;;;17.48;6.75;;;;;;;;;;5094571;28;20048;-89
2021/06/14 04:48:33;;;;;;;31.45;7.25;;;;;;;;;;5075966;28;20048;-88
2021/06/14 04:51:00;;;;;;;12.43;6.28;;;;;;;;;;5066645;28;20065;-89
2021/06/14 04:53:28;;;;;;;14.00;6.40;;;;;;;;;;5079078;28;20437;-89
2021/06/14 04:55:55;;;;;;;27.40;8.23;;;;;;;;;;5079248;28;20081;-88
2021/06/14 04:58:22;;;;;;;12.82;6.07;;;;;;;;;;5079012;28;20053;-87
2021/06/14 05:00:50;;;;;;;20.45;7.00;;;;;;;;;;5012099;28;20660;-87
2021/06/14 05:03:17;;;;;;;27.70;6.68;;;;;;;;;;5079128;28;20129;-88
2021/06/14 05:05:44;;;;;;;18.35;6.78;;;;;;;;;;5011883;28;20050;-88
2021/06/14 05:08:34;;;;;;;22.02;6.65;;;;;;;;;;5079386;28;20493;-87
2021/06/14 05:11:02;;;;;;;16.70;7.40;;;;;;;;;;5079271;28;20076;-88
2021/06/14 05:13:59;;;;;;;26.90;6.90;;;;;;;;;;5078763;28;20058;-88
2021/06/14 05:16:26;;;;;;;22.13;7.60;;;;;;;;;;5079142;28;20136;-88
2021/06/14 05:18:59;;;;;;;21.50;6.65;;;;;;;;;;5011334;28;20058;-87
2021/06/14 05:21:27;;;;;;;20.23;6.65;;;;;;;;;;5011717;28;20137;-88
2021/06/14 05:23:54;;;;;;;28.15;7.85;;;;;;;;;;5078661;28;20076;-87
2021/06/14 05:26:21;;;;;;;15.07;7.05;;;;;;;;;;5011327;28;20042;-88
2021/06/14 05:28:51;;;;;;;15.73;6.95;;;;;;;;;;5011130;28;20088;-87
2021/06/14 05:31:18;;;;;;;13.90;7.60;;;;;;;;;;5035785;28;20098;-88
2021/06/14 05:33:45;;;;;;;17.77;5.97;;;;;;;;;;5074663;28;20127;-87
2021/06/14 05:36:13;;;;;;;21.83;7.60;;;;;;;;;;5075935;28;20047;-87
2021/06/14 05:38:40;;;;;;;25.13;7.93;;;;;;;;;;5093947;28;20052;-87
2021/06/14 05:41:17;;;;;;;19.08;8.05;;;;;;;;;;5076050;28;20681;-87
2021/06/14 05:43:44;;;;;;;24.98;7.00;;;;;;;;;;5055299;28;20136;-87
2021/06/14 05:46:11;;;;;;;17.08;6.90;;;;;;;;;;5055109;28;20539;-87
2021/06/14 05:48:39;;;;;;;25.55;8.90;;;;;;;;;;5054751;28;20106;-87
2021/06/14 05:51:14;;;;;;;22.73;9.63;;;;;;;;;;5053173;28;20077;-87
2021/06/14 05:53:41;;;;;;;23.48;8.90;;;;;;;;;;5077216;28;20137;-87
2021/06/14 05:56:09;;;;;;;21.15;9.50;;;;;;;;;;5077977;28;20077;-87
2021/06/14 05:58:36;;;;;;;48.33;13.15;;;;;;;;;;5077368;28;20069;-87
2021/06/14 06:01:03;;;;;;;20.08;9.10;;;;;;;;;;5076954;28;20053;-87
2021/06/14 06:03:30;;;;;;;18.80;9.77;;;;;;;;;;5087018;28;20043;-87
2021/06/14 06:05:59;;;;;;;23.08;8.55;;;;;;;;;;5075207;28;20040;-87
2021/06/14 06:08:26;;;;;;;18.77;7.72;;;;;;;;;;5075506;28;20058;-88
2021/06/14 06:10:53;;;;;;;19.90;7.80;;;;;;;;;;5075077;28;20127;-88
2021/06/14 06:13:21;;;;;;;23.42;7.45;;;;;;;;;;5092905;28;20135;-87
2021/06/14 06:15:52;;;;;;;18.20;6.53;;;;;;;;;;5074597;28;20130;-87
2021/06/14 06:18:19;;;;;;;23.25;7.28;;;;;;;;;;5075211;28;20390;-88
2021/06/14 06:20:47;;;;;;;12.07;6.50;;;;;;;;;;5075271;28;20139;-87
2021/06/14 06:23:14;;;;;;;20.98;6.32;;;;;;;;;;5074517;28;20126;-87
2021/06/14 06:25:41;;;;;;;21.05;6.75;;;;;;;;;;5074195;28;20468;-87
2021/06/14 06:28:11;;;;;;;18.20;6.38;;;;;;;;;;5092643;28;20139;-87
2021/06/14 06:30:38;;;;;;;15.57;6.30;;;;;;;;;;5071707;28;20041;-87
2021/06/14 06:33:11;;;;;;;17.48;5.75;;;;;;;;;;5071289;28;20445;-88
2021/06/14 06:35:38;;;;;;;27.35;5.68;;;;;;;;;;5074765;28;20185;-88
2021/06/14 06:38:06;;;;;;;21.48;6.30;;;;;;;;;;5075096;28;20064;-88
2021/06/14 06:40:33;;;;;;;14.25;5.85;;;;;;;;;;5074750;28;20083;-87
2021/06/14 06:43:05;;;;;;;11.30;5.22;;;;;;;;;;5076298;28;20101;-87
2021/06/14 06:45:33;;;;;;;10.98;4.35;;;;;;;;;;5078789;28;20472;-88
2021/06/14 06:48:01;;;;;;;10.90;4.70;;;;;;;;;;5078464;28;20043;-87
2021/06/14 06:50:29;;;;;;;16.77;5.07;;;;;;;;;;5095817;28;20807;-87
2021/06/14 06:52:56;;;;;;;13.93;6.00;;;;;;;;;;5060580;28;20538;-87
2021/06/14 06:55:27;;;;;;;13.15;5.07;;;;;;;;;;5077998;28;20479;-87
2021/06/14 06:57:54;;;;;;;11.38;4.85;;;;;;;;;;5078289;28;20060;-88
2021/06/14 07:00:22;;;;;;;16.00;4.40;;;;;;;;;;5078221;28;20106;-87
2021/06/14 07:02:50;;;;;;;13.20;4.38;;;;;;;;;;5071690;28;20841;-87
2021/06/14 07:05:36;;;;;;;12.00;4.68;;;;;;;;;;5075987;28;20499;-87
2021/06/14 07:08:04;;;;;;;11.52;4.20;;;;;;;;;;5074068;28;20054;-88
2021/06/14 07:10:31;;;;;;;18.98;5.40;;;;;;;;;;5067876;28;20471;-88
2021/06/14 07:12:58;;;;;;;14.80;4.65;;;;;;;;;;5059605;28;20567;-88
2021/06/14 07:15:26;;;;;;;10.02;4.85;;;;;;;;;;5054374;28;20094;-87
2021/06/14 07:17:53;;;;;;;43.53;5.22;;;;;;;;;;5054576;28;20120;-88
2021/06/14 07:20:21;;;;;;;12.55;4.82;;;;;;;;;;5073790;28;20141;-88
2021/06/14 07:22:48;;;;;;;13.32;4.30;;;;;;;;;;5058953;28;20046;-87
2021/06/14 07:25:17;;;;;;;14.55;4.43;;;;;;;;;;5076902;28;20083;-87
2021/06/14 07:27:45;;;;;;;12.60;4.00;;;;;;;;;;5076672;28;20109;-87
2021/06/14 07:30:28;;;;;;;10.60;4.32;;;;;;;;;;5079256;28;20147;-88
2021/06/14 07:32:56;;;;;;;12.32;3.58;;;;;;;;;;5076832;28;20404;-88
2021/06/14 07:35:23;;;;;;;12.20;3.42;;;;;;;;;;5074965;28;20835;-87
2021/06/14 07:37:51;;;;;;;8.45;3.40;;;;;;;;;;5075238;28;20472;-88
2021/06/14 07:40:18;;;;;;;10.07;3.00;;;;;;;;;;5057841;28;20050;-88
2021/06/14 07:42:46;;;;;;;11.20;3.28;;;;;;;;;;5057332;28;20157;-87
2021/06/14 07:45:13;;;;;;;12.30;3.22;;;;;;;;;;5056401;28;20061;-87
2021/06/14 07:47:40;;;;;;;12.18;3.38;;;;;;;;;;5026569;28;20074;-88
2021/06/14 07:50:10;;;;;;;8.90;2.88;;;;;;;;;;5076271;28;20075;-88
2021/06/14 07:52:37;;;;;;;15.63;3.95;;;;;;;;;;5061364;28;20072;-88
2021/06/14 07:55:05;;;;;;;8.63;2.90;;;;;;;;;;5074970;28;20052;-88
2021/06/14 07:57:32;;;;;;;19.83;3.42;;;;;;;;;;5094006;28;20052;-87
2021/06/14 08:00:03;;;;;;;6.50;3.10;;;;;;;;;;5075188;28;20135;-87
2021/06/14 08:02:31;;;;;;;10.38;2.90;;;;;;;;;;5057890;28;20058;-87
2021/06/14 08:04:58;;;;;;;9.15;2.95;;;;;;;;;;4991202;28;20051;-88
2021/06/14 08:07:25;;;;;;;10.70;3.28;;;;;;;;;;5058259;28;20127;-87
2021/06/14 08:09:58;;;;;;;13.88;3.10;;;;;;;;;;5051006;28;20102;-87
2021/06/14 08:12:26;;;;;;;8.88;3.30;;;;;;;;;;5075483;28;20658;-87
2021/06/14 08:14:53;;;;;;;6.93;3.10;;;;;;;;;;5075143;28;20101;-87
2021/06/14 08:17:27;;;;;;;8.35;3.08;;;;;;;;;;5076136;28;20070;-87
2021/06/14 08:20:16;;;;;;;21.77;3.75;;;;;;;;;;5074559;28;20087;-87
2021/06/14 08:25:30;;;;;;;8.13;3.22;;;;;;;;;;5086534;28;20607;-87
2021/06/14 08:27:58;;;;;;;10.75;3.35;;;;;;;;;;5053238;28;20055;-87
2021/06/14 08:30:26;;;;;;;7.85;2.80;;;;;;;;;;5075164;28;20070;-87
2021/06/14 08:32:55;;;;;;;8.80;3.30;;;;;;;;;;5075081;28;20105;-87
2021/06/14 08:35:24;;;;;;;5.95;2.70;;;;;;;;;;5074616;28;20098;-87
2021/06/14 08:37:52;;;;;;;11.23;3.08;;;;;;;;;;5074490;28;20056;-87
2021/06/14 08:40:21;;;;;;;5.20;3.15;;;;;;;;;;5092634;28;20139;-86
2021/06/14 08:42:48;;;;;;;12.13;3.50;;;;;;;;;;5056963;28;20078;-87
2021/06/14 08:45:17;;;;;;;5.88;3.00;;;;;;;;;;5056205;28;20050;-87
2021/06/14 08:47:45;;;;;;;14.48;3.42;;;;;;;;;;5073457;28;20048;-87
2021/06/14 08:50:14;;;;;;;11.35;3.30;;;;;;;;;;5090053;28;20072;-87
2021/06/14 08:52:41;;;;;;;12.38;3.15;;;;;;;;;;5077970;28;20083;-87
2021/06/14 08:55:09;;;;;;;11.98;4.00;;;;;;;;;;5091303;28;20090;-87
2021/06/14 08:57:37;;;;;;;6.55;3.13;;;;;;;;;;5073897;28;20139;-87
2021/06/14 09:00:11;;;;;;;11.52;3.00;;;;;;;;;;5074099;28;20052;-86
2021/06/14 09:02:38;;;;;;;8.35;3.13;;;;;;;;;;5074736;28;20059;-87
2021/06/14 09:05:07;;;;;;;9.13;3.25;;;;;;;;;;5073526;28;20063;-86
2021/06/14 09:07:35;;;;;;;9.68;3.33;;;;;;;;;;5073887;28;20052;-87
2021/06/14 09:10:03;;;;;;;11.85;3.30;;;;;;;;;;5091477;28;20051;-87
2021/06/14 09:12:41;;;;;;;5.68;2.72;;;;;;;;;;5068605;28;20061;-87
2021/06/14 09:15:13;;;;;;;8.13;3.28;;;;;;;;;;5073247;28;20052;-87
2021/06/14 09:17:40;;;;;;;8.35;3.05;;;;;;;;;;5073511;28;20047;-87
2021/06/14 09:20:14;;;;;;;9.65;3.17;;;;;;;;;;5073568;28;20147;-87
2021/06/14 09:22:41;;;;;;;7.78;2.60;;;;;;;;;;5091398;28;20136;-87
2021/06/14 09:25:14;;;;;;;10.57;3.55;;;;;;;;;;5073302;28;20048;-87
2021/06/14 09:27:49;;;;;;;10.20;3.10;;;;;;;;;;5073843;28;20130;-87
2021/06/14 09:30:21;;;;;;;8.02;2.92;;;;;;;;;;5073401;28;20055;-87
2021/06/14 09:32:53;;;;;;;19.45;3.22;;;;;;;;;;5073244;28;20499;-87
2021/06/14 09:35:21;;;;;;;13.10;2.50;;;;;;;;;;5091183;28;20709;-87
2021/06/14 09:37:55;;;;;;;7.18;2.42;;;;;;;;;;5073856;28;20083;-87
2021/06/14 09:40:30;;;;;;;11.82;2.35;;;;;;;;;;5091646;28;20075;-87
2021/06/14 09:42:58;;;;;;;7.60;2.28;;;;;;;;;;5056455;28;20134;-87
2021/06/14 09:45:25;;;;;;;6.88;3.03;;;;;;;;;;5056123;28;20065;-87
2021/06/14 09:47:54;;;;;;;12.55;2.38;;;;;;;;;;4989730;28;20603;-86
2021/06/14 09:50:26;;;;;;;7.18;2.03;;;;;;;;;;5063809;28;20124;-87
2021/06/14 09:53:07;;;;;;;4.20;2.15;;;;;;;;;;5073448;28;20102;-86
2021/06/14 09:55:34;;;;;;;7.45;2.22;;;;;;;;;;5073069;28;20139;-87
2021/06/14 09:58:12;;;;;;;7.03;1.92;;;;;;;;;;5073528;28;20052;-87
2021/06/14 10:00:59;;;;;;;10.65;2.13;;;;;;;;;;5074231;28;20754;-87
2021/06/14 10:03:27;;;;;;;5.60;2.00;;;;;;;;;;5073376;28;20056;-86
2021/06/14 10:05:56;;;;;;;5.90;1.83;;;;;;;;;;5073735;28;20047;-86
2021/06/14 10:08:30;;;;;;;3.88;1.63;;;;;;;;;;5061577;28;20068;-87
2021/06/14 10:11:11;;;;;;;7.13;1.77;;;;;;;;;;5068862;28;20127;-87
2021/06/14 10:13:39;;;;;;;7.55;1.80;;;;;;;;;;5053433;28;20056;-86
2021/06/14 10:16:08;;;;;;;7.65;2.08;;;;;;;;;;5069812;28;20134;-87
2021/06/14 10:18:40;;;;;;;5.38;1.70;;;;;;;;;;5074916;28;20052;-87
2021/06/14 10:21:09;;;;;;;16.63;2.47;;;;;;;;;;5078118;28;20056;-87
2021/06/14 10:23:36;;;;;;;13.48;1.70;;;;;;;;;;5085424;28;20708;-87
2021/06/14 10:26:04;;;;;;;4.25;1.70;;;;;;;;;;5073926;28;20552;-87
2021/06/14 10:28:32;;;;;;;4.22;2.00;;;;;;;;;;5038692;28;20058;-87
2021/06/14 10:30:59;;;;;;;3.70;1.45;;;;;;;;;;5038380;28;20067;-86
2021/06/14 10:33:28;;;;;;;8.57;1.70;;;;;;;;;;5059084;28;20048;-87
2021/06/14 10:35:56;;;;;;;4.78;1.63;;;;;;;;;;5094093;28;20062;-86
2021/06/14 10:38:39;;;;;;;10.25;2.05;;;;;;;;;;5094438;28;20055;-87
2021/06/14 10:41:06;;;;;;;4.25;1.75;;;;;;;;;;5085731;28;20147;-86
2021/06/14 10:43:33;;;;;;;9.30;2.15;;;;;;;;;;5093645;28;20052;-87
2021/06/14 10:46:01;;;;;;;4.07;1.40;;;;;;;;;;5076232;28;20059;-87
2021/06/14 10:48:30;;;;;;;8.68;1.90;;;;;;;;;;5093510;28;20048;-87
2021/06/14 10:51:03;;;;;;;14.43;6.13;;;;;;;;;;5093871;28;20052;-87
2021/06/14 10:53:31;;;;;;;6.30;1.27;;;;;;;;;;5093239;28;20052;-87
2021/06/14 10:56:01;;;;;;;4.10;1.40;;;;;;;;;;5076202;28;20058;-87
2021/06/14 10:58:32;;;;;;;8.73;1.63;;;;;;;;;;5075483;28;20471;-87
2021/06/14 11:01:02;;;;;;;14.63;1.98;;;;;;;;;;5093220;28;20127;-86
2021/06/14 11:03:37;;;;;;;14.05;2.15;;;;;;;;;;5075155;28;20043;-87
2021/06/14 11:06:14;;;;;;;8.45;1.90;;;;;;;;;;5093697;28;20098;-86
2021/06/14 11:08:41;;;;;;;23.73;3.35;;;;;;;;;;5075367;28;20052;-86
2021/06/14 11:11:09;;;;;;;7.53;1.58;;;;;;;;;;5075160;28;20097;-87
2021/06/14 11:13:47;;;;;;;7.20;1.50;;;;;;;;;;5075170;28;20052;-86
2021/06/14 11:16:14;;;;;;;19.23;2.38;;;;;;;;;;5075031;28;20792;-87
2021/06/14 11:18:47;;;;;;;6.40;1.67;;;;;;;;;;5093297;28;20553;-86
2021/06/14 11:21:19;;;;;;;3.58;1.52;;;;;;;;;;5074720;28;20084;-87
2021/06/14 11:23:48;;;;;;;2.58;1.40;;;;;;;;;;5064591;28;72173;-87
2021/06/14 11:26:28;;;;;;;3.75;1.73;;;;;;;;;;5050334;28;20104;-87
2021/06/14 11:28:56;;;;;;;3.78;1.40;;;;;;;;;;5058989;28;20128;-86
2021/06/14 11:31:27;;;;;;;9.20;1.90;;;;;;;;;;5058265;28;20050;-87
2021/06/14 11:33:58;;;;;;;2.25;0.90;;;;;;;;;;4990539;28;20055;-87
2021/06/14 11:36:27;;;;;;;4.60;2.25;;;;;;;;;;5058935;28;20055;-86
2021/06/14 11:38:55;;;;;;;4.00;1.40;;;;;;;;;;5075578;28;20048;-86
2021/06/14 11:41:26;;;;;;;3.08;1.48;;;;;;;;;;5075894;28;20051;-86
2021/06/14 11:44:19;;;;;;;10.52;2.00;;;;;;;;;;5075765;28;20071;-87
2021/06/14 11:46:47;;;;;;;8.85;1.75;;;;;;;;;;5094018;28;20052;-87
2021/06/14 11:49:15;;;;;;;6.35;1.50;;;;;;;;;;5075210;28;20040;-86
2021/06/14 11:51:42;;;;;;;3.78;1.38;;;;;;;;;;5075159;28;20048;-86
2021/06/14 11:54:10;;;;;;;5.70;1.42;;;;;;;;;;5087185;28;20048;-86
2021/06/14 11:56:39;;;;;;;4.20;1.60;;;;;;;;;;5075748;28;20150;-86
2021/06/14 11:59:07;;;;;;;7.68;1.60;;;;;;;;;;5093846;28;20056;-86
2021/06/14 12:01:39;;;;;;;8.05;1.50;;;;;;;;;;5058192;28;20145;-86
2021/06/14 12:04:08;;;;;;;3.40;1.48;;;;;;;;;;5092909;28;20072;-86
2021/06/14 12:06:43;;;;;;;5.35;1.63;;;;;;;;;;5093848;28;20135;-86
2021/06/14 12:09:12;;;;;;;5.57;1.48;;;;;;;;;;5069218;28;20493;-86
2021/06/14 12:11:39;;;;;;;7.07;1.88;;;;;;;;;;5071212;28;20072;-86
2021/06/14 12:14:11;;;;;;;15.73;2.65;;;;;;;;;;5054982;28;20048;-87
2021/06/14 12:16:38;;;;;;;3.47;1.42;;;;;;;;;;5055226;28;20110;-86
2021/06/14 12:19:08;;;;;;;5.47;1.30;;;;;;;;;;5055221;28;20129;-86
2021/06/14 12:21:35;;;;;;;5.90;1.92;;;;;;;;;;5074239;28;20048;-86
2021/06/14 12:24:03;;;;;;;3.55;1.75;;;;;;;;;;5092418;28;20079;-86
2021/06/14 12:26:39;;;;;;;6.25;1.88;;;;;;;;;;5093526;28;20044;-86
2021/06/14 12:29:16;;;;;;;2.90;1.90;;;;;;;;;;5075303;28;20558;-86
2021/06/14 12:31:44;;;;;;;10.02;1.90;;;;;;;;;;5075729;28;20074;-86
2021/06/14 12:34:26;;;;;;;3.05;1.90;;;;;;;;;;5092922;28;20761;-86
2021/06/14 12:37:01;;;;;;;5.85;1.90;;;;;;;;;;5093178;28;20048;-86
2021/06/14 12:39:28;;;;;;;6.60;3.13;;;;;;;;;;5074415;28;20078;-86
2021/06/14 12:41:55;;;;;;;2.90;1.90;;;;;;;;;;5022440;28;20139;-86
2021/06/14 12:44:23;;;;;;;7.57;1.83;;;;;;;;;;5074863;28;20095;-86
2021/06/14 12:46:59;;;;;;;11.80;4.07;;;;;;;;;;5091996;28;20048;-86
2021/06/14 12:49:29;;;;;;;9.13;3.10;;;;;;;;;;5079559;28;20045;-86
2021/06/14 12:51:57;;;;;;;4.80;2.30;;;;;;;;;;5027448;28;20094;-86
2021/06/14 12:54:25;;;;;;;8.82;2.42;;;;;;;;;;5092591;28;20687;-86
2021/06/14 12:56:54;;;;;;;24.92;3.78;;;;;;;;;;5074474;28;20465;-86
2021/06/14 12:59:22;;;;;;;7.03;2.88;;;;;;;;;;5091764;28;20048;-86
2021/06/14 13:01:49;;;;;;;5.78;2.25;;;;;;;;;;5073240;28;20056;-86
2021/06/14 13:04:17;;;;;;;4.80;2.33;;;;;;;;;;5056283;28;20092;-85
2021/06/14 13:06:44;;;;;;;6.90;2.80;;;;;;;;;;5073979;28;20056;-85
2021/06/14 13:09:14;;;;;;;7.05;3.08;;;;;;;;;;5073748;28;20097;-86
2021/06/14 13:11:47;;;;;;;7.10;3.05;;;;;;;;;;5057293;28;20050;-86
2021/06/14 13:14:30;;;;;;;37.75;4.13;;;;;;;;;;5056179;28;20544;-86
2021/06/14 13:16:57;;;;;;;19.50;3.67;;;;;;;;;;5074571;28;20051;-86
2021/06/14 13:19:26;;;;;;;7.43;2.63;;;;;;;;;;5074179;28;20055;-86
2021/06/14 13:22:07;;;;;;;7.97;3.17;;;;;;;;;;5057007;28;20660;-86
2021/06/14 13:24:37;;;;;;;7.35;2.65;;;;;;;;;;5073272;28;20083;-86
2021/06/14 13:27:08;;;;;;;7.22;2.30;;;;;;;;;;5092475;28;20131;-86
2021/06/14 13:29:36;;;;;;;9.90;2.47;;;;;;;;;;5073918;28;20048;-86
2021/06/14 13:32:10;;;;;;;7.20;2.88;;;;;;;;;;5072001;28;20620;-86
2021/06/14 13:34:40;;;;;;;4.22;2.17;;;;;;;;;;5036988;28;20084;-86
2021/06/14 13:37:07;;;;;;;21.23;3.20;;;;;;;;;;5035943;28;20105;-86
2021/06/14 13:39:37;;;;;;;9.30;3.17;;;;;;;;;;5026538;28;20048;-86
2021/06/14 13:42:07;;;;;;;5.75;2.72;;;;;;;;;;5073742;28;20101;-86
2021/06/14 13:44:35;;;;;;;5.43;2.92;;;;;;;;;;5074024;28;20054;-86
2021/06/14 13:47:04;;;;;;;7.32;2.42;;;;;;;;;;5091943;28;20083;-86
2021/06/14 13:49:40;;;;;;;11.55;2.80;;;;;;;;;;5074185;28;20051;-86
2021/06/14 13:52:17;;;;;;;5.88;2.90;;;;;;;;;;5056040;28;20100;-86
2021/06/14 13:54:45;;;;;;;9.55;3.08;;;;;;;;;;5058689;28;20054;-87
2021/06/14 13:57:13;;;;;;;11.60;3.80;;;;;;;;;;5056662;28;20058;-86
2021/06/14 13:59:41;;;;;;;7.85;2.60;;;;;;;;;;5014101;28;20044;-87
2021/06/14 14:02:19;;;;;;;7.45;2.83;;;;;;;;;;5093577;28;20388;-86
2021/06/14 14:04:57;;;;;;;5.20;2.78;;;;;;;;;;5091312;28;20052;-86
2021/06/14 14:07:24;;;;;;;7.88;3.35;;;;;;;;;;5090883;28;20088;-84
2021/06/14 14:09:53;;;;;;;7.72;2.92;;;;;;;;;;5072533;28;20079;-86
2021/06/14 14:12:20;;;;;;;6.10;3.10;;;;;;;;;;5072593;28;20097;-85
2021/06/14 14:14:48;;;;;;;5.47;2.58;;;;;;;;;;5071844;28;20135;-86
2021/06/14 14:17:15;;;;;;;6.55;3.05;;;;;;;;;;5073486;28;20071;-86
2021/06/14 14:19:51;;;;;;;6.07;3.00;;;;;;;;;;5091062;28;20635;-86
2021/06/14 14:22:18;;;;;;;8.10;3.05;;;;;;;;;;5080860;28;20809;-86
2021/06/14 14:24:45;;;;;;;9.40;3.45;;;;;;;;;;5090667;28;20090;-86
2021/06/14 14:27:12;;;;;;;11.88;3.33;;;;;;;;;;5073369;28;20161;-86
2021/06/14 14:29:46;;;;;;;9.45;3.80;;;;;;;;;;5090775;28;20071;-86
2021/06/14 14:32:14;;;;;;;6.53;3.10;;;;;;;;;;5073222;28;20481;-85
2021/06/14 14:34:49;;;;;;;10.57;3.60;;;;;;;;;;5090667;28;20403;-85
2021/06/14 14:37:25;;;;;;;8.60;3.63;;;;;;;;;;5091268;28;20052;-85
2021/06/14 14:40:01;;;;;;;9.05;3.75;;;;;;;;;;5055052;28;20103;-86
2021/06/14 14:42:28;;;;;;;73.20;7.07;;;;;;;;;;5064651;28;20048;-86
2021/06/14 14:45:03;;;;;;;12.07;3.42;;;;;;;;;;5090484;28;20135;-86
2021/06/14 14:47:31;;;;;;;14.95;3.38;;;;;;;;;;5073339;28;20079;-86
2021/06/14 14:49:58;;;;;;;8.90;3.05;;;;;;;;;;5072852;28;20083;-87
2021/06/14 14:52:26;;;;;;;10.70;3.53;;;;;;;;;;5090764;28;20079;-86
2021/06/14 14:54:54;;;;;;;9.52;2.90;;;;;;;;;;5090709;28;20055;-87
2021/06/14 14:57:22;;;;;;;10.80;3.42;;;;;;;;;;5072696;28;20118;-86
2021/06/14 14:59:49;;;;;;;10.15;3.47;;;;;;;;;;5091187;28;20051;-86